createdAt,value
2022-08-25T00:01:31.731Z,82.64
2022-08-25T00:03:59.341Z,83.47
2022-08-25T00:06:26.134Z,83.81
2022-08-25T00:08:52.620Z,83.66
2022-08-25T00:11:21.076Z,84.20
2022-08-25T00:13:48.675Z,84.25
2022-08-25T00:16:16.097Z,83.46
2022-08-25T00:18:45.623Z,84.01
2022-08-25T00:21:12.650Z,83.80
2022-08-25T00:23:40.031Z,84.28
2022-08-25T00:26:06.668Z,86.60
2022-08-25T00:28:33.919Z,88.84
2022-08-25T00:31:01.333Z,88.90
2022-08-25T00:33:28.454Z,89.14
2022-08-25T00:35:56.396Z,91.37
2022-08-25T00:38:23.143Z,92.37
2022-08-25T00:41:05.789Z,92.37
2022-08-25T00:43:38.206Z,92.93
2022-08-25T00:46:04.854Z,94.22
2022-08-25T00:48:31.341Z,96.66
2022-08-25T00:50:57.747Z,99.16
2022-08-25T00:53:24.310Z,100.00
2022-08-25T00:55:50.718Z,100.00
2022-08-25T00:58:19.237Z,100.00
2022-08-25T01:00:47.342Z,100.00
2022-08-25T01:03:14.340Z,100.00
2022-08-25T01:05:41.145Z,100.00
2022-08-25T01:08:07.636Z,100.00
2022-08-25T01:10:35.256Z,100.00
2022-08-25T01:13:03.720Z,100.00
2022-08-25T01:15:30.357Z,100.00
2022-08-25T01:17:57.454Z,100.00
2022-08-25T01:20:29.603Z,100.00
2022-08-25T01:22:56.620Z,100.00
2022-08-25T01:25:55.527Z,100.00
2022-08-25T01:28:22.262Z,100.00
2022-08-25T01:30:49.397Z,100.00
2022-08-25T01:33:17.310Z,100.00
2022-08-25T01:35:43.921Z,100.00
2022-08-25T01:38:10.412Z,100.00
2022-08-25T01:40:37.472Z,100.00
2022-08-25T01:43:07.119Z,100.00
2022-08-25T01:45:34.748Z,100.00
2022-08-25T01:48:01.327Z,100.00
2022-08-25T01:50:27.927Z,100.00
2022-08-25T01:52:55.879Z,100.00
2022-08-25T01:55:22.642Z,100.00
2022-08-25T01:57:49.142Z,100.00
2022-08-25T02:00:16.164Z,100.00
2022-08-25T02:02:42.911Z,100.00
2022-08-25T02:05:11.319Z,100.00
2022-08-25T02:07:38.233Z,100.00
2022-08-25T02:10:06.237Z,100.00
2022-08-25T02:12:32.740Z,100.00
2022-08-25T02:14:59.822Z,100.00
2022-08-25T02:17:26.234Z,100.00
2022-08-25T02:19:52.687Z,100.00
2022-08-25T02:22:19.100Z,100.00
2022-08-25T02:24:45.549Z,100.00
2022-08-25T02:27:12.086Z,100.00
2022-08-25T02:29:38.559Z,100.00
2022-08-25T02:32:05.024Z,100.00
2022-08-25T02:34:31.458Z,100.00
2022-08-25T02:36:57.873Z,100.00
2022-08-25T02:39:24.346Z,100.00
2022-08-25T02:41:51.500Z,100.00
2022-08-25T02:44:17.939Z,100.00
2022-08-25T02:46:44.355Z,100.00
2022-08-25T02:49:10.798Z,100.00
2022-08-25T02:51:37.205Z,100.00
2022-08-25T02:54:04.395Z,100.00
2022-08-25T02:56:31.071Z,100.00
2022-08-25T02:58:57.605Z,100.00
2022-08-25T03:01:28.655Z,100.00
2022-08-25T03:03:55.829Z,100.00
2022-08-25T03:06:25.445Z,100.00
2022-08-25T03:08:52.243Z,100.00
2022-08-25T03:11:18.736Z,100.00
2022-08-25T03:13:45.161Z,100.00
2022-08-25T03:16:12.453Z,100.00
2022-08-25T03:18:40.233Z,100.00
2022-08-25T03:21:07.092Z,100.00
2022-08-25T03:23:33.500Z,100.00
2022-08-25T03:26:18.554Z,100.00
2022-08-25T03:28:45.038Z,100.00
2022-08-25T03:31:11.518Z,100.00
2022-08-25T03:33:38.418Z,100.00
2022-08-25T03:36:05.601Z,100.00
2022-08-25T03:38:32.220Z,100.00
2022-08-25T03:40:58.672Z,100.00
2022-08-25T03:43:25.083Z,100.00
2022-08-25T03:45:51.563Z,100.00
2022-08-25T03:48:18.269Z,100.00
2022-08-25T03:50:50.782Z,100.00
2022-08-25T03:53:18.914Z,100.00
2022-08-25T03:55:45.413Z,100.00
2022-08-25T03:58:12.391Z,100.00
2022-08-25T04:00:38.895Z,100.00
2022-08-25T04:03:05.342Z,100.00
2022-08-25T04:05:31.883Z,100.00
2022-08-25T04:08:01.909Z,100.00
2022-08-25T04:10:28.605Z,100.00
2022-08-25T04:12:55.993Z,100.00
2022-08-25T04:15:22.491Z,100.00
2022-08-25T04:17:50.527Z,100.00
2022-08-25T04:20:18.934Z,100.00
2022-08-25T04:22:45.434Z,100.00
2022-08-25T04:25:11.868Z,100.00
2022-08-25T04:27:38.314Z,100.00
2022-08-25T04:30:05.542Z,100.00
2022-08-25T04:32:32.211Z,100.00
2022-08-25T04:34:59.002Z,100.00
2022-08-25T04:37:25.473Z,100.00
2022-08-25T04:39:51.999Z,100.00
2022-08-25T04:42:18.433Z,100.00
2022-08-25T04:44:44.865Z,100.00
2022-08-25T04:47:12.240Z,100.00
2022-08-25T04:49:38.685Z,100.00
2022-08-25T04:52:05.116Z,100.00
2022-08-25T04:54:39.460Z,100.00
2022-08-25T04:57:06.248Z,100.00
2022-08-25T04:59:32.734Z,100.00
2022-08-25T05:02:02.526Z,100.00
2022-08-25T05:04:29.358Z,100.00
2022-08-25T05:06:56.353Z,100.00
2022-08-25T05:09:22.836Z,100.00
2022-08-25T05:11:49.267Z,100.00
2022-08-25T05:14:18.219Z,100.00
2022-08-25T05:16:46.120Z,100.00
2022-08-25T05:19:12.660Z,100.00
2022-08-25T05:21:39.201Z,100.00
2022-08-25T05:24:05.857Z,100.00
2022-08-25T05:26:33.221Z,100.00
2022-08-25T05:29:00.775Z,100.00
2022-08-25T05:31:28.013Z,100.00
2022-08-25T05:33:54.724Z,100.00
2022-08-25T05:36:21.992Z,100.00
2022-08-25T05:38:48.621Z,100.00
2022-08-25T05:41:16.951Z,100.00
2022-08-25T05:43:44.250Z,100.00
2022-08-25T05:46:10.895Z,100.00
2022-08-25T05:48:37.502Z,100.00
2022-08-25T05:51:04.890Z,100.00
2022-08-25T05:53:31.430Z,100.00
2022-08-25T05:56:00.744Z,100.00
2022-08-25T05:58:30.709Z,100.00
2022-08-25T06:00:58.100Z,100.00
2022-08-25T06:03:24.579Z,100.00
2022-08-25T06:05:51.029Z,100.00
2022-08-25T06:08:17.529Z,100.00
2022-08-25T06:10:44.015Z,100.00
2022-08-25T06:13:10.471Z,100.00
2022-08-25T06:15:38.653Z,100.00
2022-08-25T06:18:05.240Z,100.00
2022-08-25T06:20:32.218Z,100.00
2022-08-25T06:22:58.827Z,100.00
2022-08-25T06:25:25.753Z,100.00
2022-08-25T06:27:52.206Z,100.00
2022-08-25T06:30:24.325Z,100.00
2022-08-25T06:32:54.982Z,100.00
2022-08-25T06:35:21.440Z,100.00
2022-08-25T06:37:47.945Z,100.00
2022-08-25T06:40:15.049Z,100.00
2022-08-25T06:42:41.684Z,100.00
2022-08-25T06:45:08.484Z,100.00
2022-08-25T06:47:34.944Z,100.00
2022-08-25T06:50:04.014Z,100.00
2022-08-25T06:52:30.768Z,100.00
2022-08-25T06:54:57.317Z,100.00
2022-08-25T06:57:24.331Z,100.00
2022-08-25T06:59:53.491Z,100.00
2022-08-25T07:02:21.952Z,100.00
2022-08-25T07:04:48.848Z,100.00
2022-08-25T07:07:15.277Z,99.07
2022-08-25T07:09:41.715Z,98.10
2022-08-25T07:12:08.330Z,91.84
2022-08-25T07:14:36.424Z,90.67
2022-08-25T07:17:03.286Z,89.12
2022-08-25T07:19:37.112Z,83.90
2022-08-25T07:22:03.561Z,82.34
2022-08-25T07:24:30.021Z,81.49
2022-08-25T07:26:56.514Z,81.84
2022-08-25T07:29:32.174Z,81.28
2022-08-25T07:32:02.732Z,81.11
2022-08-25T07:34:52.150Z,79.89
2022-08-25T07:37:32.210Z,79.14
2022-08-25T07:40:02.158Z,80.63
2022-08-25T07:42:31.364Z,80.84
2022-08-25T07:44:57.977Z,76.11
2022-08-25T07:47:24.468Z,73.36
2022-08-25T07:49:50.945Z,74.85
2022-08-25T07:52:17.372Z,74.90
2022-08-25T07:54:44.237Z,75.72
2022-08-25T07:57:13.651Z,72.30
2022-08-25T07:59:43.415Z,72.16
2022-08-25T08:02:18.215Z,69.50
2022-08-25T08:04:46.318Z,69.85
2022-08-25T08:07:12.814Z,68.80
2022-08-25T08:09:39.224Z,67.14
2022-08-25T08:12:05.868Z,68.10
2022-08-25T08:14:39.568Z,66.93
2022-08-25T08:17:11.626Z,66.66
2022-08-25T08:19:40.757Z,65.05
2022-08-25T08:22:11.555Z,67.46
2022-08-25T08:24:44.615Z,69.36
2022-08-25T08:27:21.342Z,69.15
2022-08-25T08:29:48.574Z,66.37
2022-08-25T08:32:15.110Z,66.61
2022-08-25T08:34:41.761Z,64.38
2022-08-25T08:37:10.413Z,64.48
2022-08-25T08:39:37.148Z,65.62
2022-08-25T08:42:23.208Z,63.32
2022-08-25T08:44:50.357Z,62.73
2022-08-25T08:47:19.819Z,61.84
2022-08-25T08:49:55.313Z,61.59
2022-08-25T08:52:24.514Z,60.46
2022-08-25T08:54:53.285Z,58.12
2022-08-25T08:57:20.190Z,57.07
2022-08-25T08:59:50.818Z,56.54
2022-08-25T09:02:51.528Z,55.03
2022-08-25T09:05:20.022Z,53.72
2022-08-25T09:07:48.396Z,52.02
2022-08-25T09:10:18.275Z,51.87
2022-08-25T09:12:48.165Z,52.54
2022-08-25T09:15:54.793Z,53.05
2022-08-25T09:18:29.873Z,51.44
2022-08-25T09:21:03.303Z,50.12
2022-08-25T09:23:48.323Z,49.55
2022-08-25T09:26:24.104Z,50.57
2022-08-25T09:28:51.918Z,50.40
2022-08-25T09:31:20.113Z,47.93
2022-08-25T09:33:46.773Z,48.11
2022-08-25T09:36:13.654Z,47.05
2022-08-25T09:38:41.214Z,46.23
2022-08-25T09:41:07.982Z,43.98
2022-08-25T09:43:35.621Z,42.99
2022-08-25T09:46:05.190Z,40.50
2022-08-25T09:48:56.713Z,40.72
2022-08-25T09:51:26.727Z,37.38
2022-08-25T09:53:53.189Z,34.66
2022-08-25T09:56:21.581Z,33.58
2022-08-25T09:58:48.443Z,32.97
2022-08-25T10:01:16.329Z,30.75
2022-08-25T10:03:59.682Z,29.75
2022-08-25T10:06:27.827Z,29.94
2022-08-25T10:08:58.251Z,30.39
2022-08-25T10:11:38.831Z,28.35
2022-08-25T10:14:07.814Z,27.57
2022-08-25T10:16:36.162Z,26.69
2022-08-25T10:19:32.322Z,26.84
2022-08-25T10:22:12.076Z,25.50
2022-08-25T10:24:39.457Z,24.99
2022-08-25T10:27:15.078Z,26.15
2022-08-25T10:29:57.625Z,25.09
2022-08-25T10:32:27.645Z,23.99
2022-08-25T10:34:55.118Z,23.39
2022-08-25T10:37:43.682Z,22.34
2022-08-25T10:40:25.494Z,21.41
2022-08-25T10:42:58.621Z,20.90
2022-08-25T10:45:44.627Z,20.61
2022-08-25T10:48:13.400Z,19.96
2022-08-25T10:51:00.909Z,19.96
2022-08-25T10:53:29.503Z,20.53
2022-08-25T10:56:07.856Z,22.50
2022-08-25T10:58:37.499Z,21.78
2022-08-25T11:01:08.089Z,19.67
2022-08-25T11:03:42.888Z,18.13
2022-08-25T11:06:12.571Z,17.77
2022-08-25T11:08:55.297Z,18.25
2022-08-25T11:11:31.312Z,16.85
2022-08-25T11:14:05.728Z,16.83
2022-08-25T11:16:37.547Z,16.39
2022-08-25T11:19:26.884Z,18.79
2022-08-25T11:21:59.595Z,18.60
2022-08-25T11:24:29.093Z,20.85
2022-08-25T11:26:56.399Z,19.17
2022-08-25T11:29:24.183Z,19.51
2022-08-25T11:31:53.530Z,20.14
2022-08-25T11:34:20.845Z,21.55
2022-08-25T11:36:52.090Z,20.50
2022-08-25T11:39:18.617Z,19.34
2022-08-25T11:42:03.984Z,17.66
2022-08-25T11:44:53.344Z,15.89
2022-08-25T11:47:50.083Z,16.53
2022-08-25T11:50:29.905Z,17.37
2022-08-25T11:53:16.973Z,16.52
2022-08-25T11:55:43.623Z,15.63
2022-08-25T11:58:33.210Z,15.11
2022-08-25T12:01:00.444Z,15.70
2022-08-25T12:03:32.924Z,17.57
2022-08-25T12:06:25.733Z,17.83
2022-08-25T12:08:52.795Z,17.16
2022-08-25T12:11:42.292Z,15.47
2022-08-25T12:14:28.995Z,16.22
2022-08-25T12:16:55.539Z,14.61
2022-08-25T12:19:28.653Z,13.99
2022-08-25T12:21:56.726Z,12.90
2022-08-25T12:24:47.996Z,12.75
2022-08-25T12:27:29.054Z,12.24
2022-08-25T12:30:21.096Z,12.01
2022-08-25T12:33:03.095Z,12.35
2022-08-25T12:35:33.560Z,11.95
2022-08-25T12:38:10.288Z,11.96
2022-08-25T12:40:43.876Z,12.17
2022-08-25T12:43:20.671Z,11.05
2022-08-25T12:45:53.064Z,10.60
2022-08-25T12:48:29.050Z,12.70
2022-08-25T12:50:57.779Z,13.14
2022-08-25T12:53:24.580Z,12.63
2022-08-25T12:55:58.162Z,11.15
2022-08-25T12:58:31.211Z,10.51
2022-08-25T13:01:35.249Z,10.81
2022-08-25T13:04:09.387Z,10.79
2022-08-25T13:06:54.813Z,11.43
2022-08-25T13:09:31.409Z,11.32
2022-08-25T13:11:57.884Z,10.23
2022-08-25T13:14:34.754Z,9.27
2022-08-25T13:17:05.570Z,10.98
2022-08-25T13:19:34.760Z,13.05
2022-08-25T13:22:03.443Z,15.01
2022-08-25T13:24:30.755Z,16.76
2022-08-25T13:27:08.906Z,18.54
2022-08-25T13:29:37.691Z,20.85
2022-08-25T13:32:12.671Z,22.02
2022-08-25T13:34:42.893Z,23.34
2022-08-25T13:37:30.382Z,24.16
2022-08-25T13:40:27.408Z,25.21
2022-08-25T13:42:56.232Z,26.42
2022-08-25T13:45:25.358Z,26.88
2022-08-25T13:47:55.834Z,26.96
2022-08-25T13:50:29.907Z,26.76
2022-08-25T13:52:56.694Z,27.89
2022-08-25T13:55:27.736Z,27.54
2022-08-25T13:57:55.168Z,28.07
2022-08-25T14:00:31.819Z,28.44
2022-08-25T14:02:59.343Z,28.94
2022-08-25T14:05:36.459Z,29.35
2022-08-25T14:08:16.254Z,29.39
2022-08-25T14:10:49.855Z,28.96
2022-08-25T14:13:31.881Z,29.56
2022-08-25T14:16:18.649Z,30.29
2022-08-25T14:18:52.863Z,30.44
2022-08-25T14:21:22.871Z,30.99
2022-08-25T14:23:49.290Z,31.50
2022-08-25T14:26:16.369Z,30.58
2022-08-25T14:28:42.912Z,31.01
2022-08-25T14:31:11.106Z,30.81
2022-08-25T14:33:39.362Z,30.28
2022-08-25T14:36:07.017Z,30.46
2022-08-25T14:38:33.730Z,30.23
2022-08-25T14:41:00.303Z,29.98
2022-08-25T14:43:31.774Z,29.17
2022-08-25T14:45:58.986Z,29.99
2022-08-25T14:48:27.142Z,30.06
2022-08-25T14:50:54.111Z,30.94
2022-08-25T14:53:20.526Z,30.63
2022-08-25T14:55:46.970Z,30.24
2022-08-25T14:58:13.729Z,30.34
2022-08-25T15:00:43.833Z,29.95
2022-08-25T15:03:14.674Z,28.89
2022-08-25T15:05:41.213Z,29.12
2022-08-25T15:08:29.927Z,29.16
2022-08-25T15:10:59.042Z,29.87
2022-08-25T15:13:27.444Z,29.51
2022-08-25T15:15:54.902Z,30.34
2022-08-25T15:18:25.756Z,30.43
2022-08-25T15:20:52.208Z,30.58
2022-08-25T15:23:18.843Z,30.95
2022-08-25T15:25:45.970Z,31.20
2022-08-25T15:28:12.787Z,31.55
2022-08-25T15:30:45.689Z,31.42
2022-08-25T15:33:12.506Z,31.00
2022-08-25T15:35:39.069Z,30.63
2022-08-25T15:38:05.618Z,31.05
2022-08-25T15:40:34.398Z,29.62
2022-08-25T15:43:01.537Z,27.86
2022-08-25T15:45:27.999Z,28.88
2022-08-25T15:47:54.401Z,29.87
2022-08-25T15:50:25.403Z,31.25
2022-08-25T15:52:52.680Z,33.03
2022-08-25T15:55:19.859Z,33.91
2022-08-25T15:57:47.823Z,34.05
2022-08-25T16:00:17.036Z,34.45
2022-08-25T16:02:45.421Z,34.77
2022-08-25T16:05:13.465Z,34.35
2022-08-25T16:07:40.039Z,33.60
2022-08-25T16:10:06.620Z,33.90
2022-08-25T16:12:33.094Z,34.58
2022-08-25T16:14:59.896Z,34.94
2022-08-25T16:17:26.735Z,34.63
2022-08-25T16:19:53.200Z,34.72
2022-08-25T16:22:19.803Z,35.36
2022-08-25T16:24:46.317Z,35.21
2022-08-25T16:27:13.297Z,35.81
2022-08-25T16:29:40.678Z,35.50
2022-08-25T16:32:07.885Z,36.08
2022-08-25T16:34:34.513Z,35.59
2022-08-25T16:37:01.028Z,35.87
2022-08-25T16:39:27.468Z,35.83
2022-08-25T16:41:54.295Z,35.24
2022-08-25T16:44:22.629Z,35.62
2022-08-25T16:46:49.583Z,36.27
2022-08-25T16:49:17.510Z,36.31
2022-08-25T16:51:44.026Z,36.98
2022-08-25T16:54:29.544Z,37.38
2022-08-25T16:56:57.420Z,37.79
2022-08-25T16:59:23.943Z,38.25
2022-08-25T17:01:50.464Z,38.56
2022-08-25T17:04:17.322Z,38.53
2022-08-25T17:06:51.689Z,39.01
2022-08-25T17:09:22.855Z,39.47
2022-08-25T17:11:52.623Z,39.32
2022-08-25T17:14:21.198Z,40.44
2022-08-25T17:16:48.600Z,41.24
2022-08-25T17:19:17.341Z,41.21
2022-08-25T17:21:46.402Z,42.15
2022-08-25T17:24:13.335Z,41.39
2022-08-25T17:26:41.135Z,41.85
2022-08-25T17:29:07.880Z,42.14
2022-08-25T17:31:39.635Z,42.58
2022-08-25T17:34:07.610Z,43.16
2022-08-25T17:36:34.055Z,43.51
2022-08-25T17:39:00.562Z,42.78
2022-08-25T17:41:27.892Z,43.52
2022-08-25T17:43:54.375Z,44.13
2022-08-25T17:46:20.911Z,44.79
2022-08-25T17:48:47.374Z,44.65
2022-08-25T17:51:16.030Z,44.90
2022-08-25T17:53:43.678Z,44.93
2022-08-25T17:56:14.823Z,45.39
2022-08-25T17:58:41.405Z,45.22
2022-08-25T18:01:13.911Z,45.85
2022-08-25T18:03:40.397Z,46.59
2022-08-25T18:06:08.391Z,47.44
2022-08-25T18:08:35.482Z,48.09
2022-08-25T18:11:02.583Z,48.60
2022-08-25T18:13:29.253Z,49.56
2022-08-25T18:15:55.697Z,50.08
2022-08-25T18:18:24.298Z,50.62
2022-08-25T18:20:50.963Z,51.32
2022-08-25T18:23:19.512Z,51.43
2022-08-25T18:25:46.125Z,52.23
2022-08-25T18:28:14.150Z,52.77
2022-08-25T18:30:40.805Z,53.45
2022-08-25T18:33:07.911Z,53.97
2022-08-25T18:35:34.354Z,54.64
2022-08-25T18:38:19.940Z,55.41
2022-08-25T18:40:47.748Z,56.52
2022-08-25T18:43:14.447Z,56.54
2022-08-25T18:45:42.477Z,57.45
2022-08-25T18:48:09.246Z,58.30
2022-08-25T18:50:36.412Z,58.69
2022-08-25T18:53:03.207Z,59.34
2022-08-25T18:55:32.796Z,59.52
2022-08-25T18:57:59.292Z,59.98
2022-08-25T19:00:26.885Z,61.34
2022-08-25T19:02:54.723Z,61.39
2022-08-25T19:05:23.749Z,61.80
2022-08-25T19:07:52.039Z,62.24
2022-08-25T19:10:19.080Z,62.46
2022-08-25T19:12:45.709Z,63.15
2022-08-25T19:15:12.779Z,63.89
2022-08-25T19:17:39.296Z,64.92
2022-08-25T19:20:11.232Z,65.36
2022-08-25T19:22:41.989Z,65.84
2022-08-25T19:25:09.494Z,67.64
2022-08-25T19:27:36.015Z,67.26
2022-08-25T19:30:03.604Z,68.20
2022-08-25T19:32:30.282Z,68.11
2022-08-25T19:34:56.863Z,68.66
2022-08-25T19:37:25.050Z,69.51
2022-08-25T19:39:53.986Z,70.94
2022-08-25T19:42:31.744Z,73.28
2022-08-25T19:45:03.065Z,74.37
2022-08-25T19:47:29.735Z,75.19
2022-08-25T19:49:58.564Z,76.12
2022-08-25T19:52:28.727Z,76.28
2022-08-25T19:54:55.419Z,76.74
2022-08-25T19:57:28.236Z,76.06
2022-08-25T20:00:10.242Z,77.94
2022-08-25T20:02:36.905Z,78.11
2022-08-25T20:05:04.105Z,78.45
2022-08-25T20:07:32.503Z,79.66
2022-08-25T20:09:59.451Z,79.94
2022-08-25T20:12:26.011Z,80.46
2022-08-25T20:14:53.455Z,81.58
2022-08-25T20:17:24.742Z,82.22
2022-08-25T20:19:57.166Z,85.66
2022-08-25T20:22:26.114Z,86.39
2022-08-25T20:24:57.426Z,86.80
2022-08-25T20:27:26.603Z,90.11
2022-08-25T20:29:53.343Z,90.20
2022-08-25T20:32:19.869Z,91.01
2022-08-25T20:34:46.801Z,94.31
2022-08-25T20:37:13.286Z,93.32
2022-08-25T20:39:40.671Z,93.08
2022-08-25T20:42:07.173Z,94.53
2022-08-25T20:44:36.692Z,96.00
2022-08-25T20:47:08.786Z,97.68
2022-08-25T20:49:37.863Z,96.66
2022-08-25T20:52:04.611Z,97.45
2022-08-25T20:54:31.133Z,99.24
2022-08-25T20:56:57.657Z,99.75
2022-08-25T20:59:24.790Z,100.00
2022-08-25T21:01:51.630Z,100.00
2022-08-25T21:04:20.745Z,100.00
2022-08-25T21:06:47.322Z,100.00
2022-08-25T21:09:16.022Z,100.00
2022-08-25T21:11:42.854Z,100.00
2022-08-25T21:14:09.826Z,100.00
2022-08-25T21:16:37.686Z,100.00
2022-08-25T21:19:04.515Z,100.00
2022-08-25T21:21:37.403Z,100.00
2022-08-25T21:24:07.317Z,100.00
2022-08-25T21:26:35.296Z,100.00
2022-08-25T21:29:03.835Z,100.00
2022-08-25T21:31:31.180Z,100.00
2022-08-25T21:33:58.486Z,100.00
2022-08-25T21:36:25.687Z,100.00
2022-08-25T21:38:52.653Z,100.00
2022-08-25T21:41:21.282Z,100.00
2022-08-25T21:43:48.106Z,100.00
2022-08-25T21:46:15.689Z,100.00
2022-08-25T21:48:42.179Z,100.00
2022-08-25T21:51:09.706Z,100.00
2022-08-25T21:53:36.663Z,100.00
2022-08-25T21:56:07.092Z,100.00
2022-08-25T21:58:33.709Z,100.00
2022-08-25T22:01:07.486Z,100.00
2022-08-25T22:03:37.752Z,100.00
2022-08-25T22:06:05.306Z,100.00
2022-08-25T22:08:32.605Z,100.00
2022-08-25T22:11:00.267Z,100.00
2022-08-25T22:13:27.358Z,100.00
2022-08-25T22:15:54.384Z,100.00
2022-08-25T22:18:21.485Z,100.00
2022-08-25T22:20:48.557Z,100.00
2022-08-25T22:23:20.281Z,100.00
2022-08-25T22:25:47.614Z,100.00
2022-08-25T22:28:15.780Z,100.00
2022-08-25T22:30:42.724Z,100.00
2022-08-25T22:33:09.343Z,100.00
2022-08-25T22:35:36.004Z,100.00
2022-08-25T22:38:06.338Z,100.00
2022-08-25T22:40:33.515Z,100.00
2022-08-25T22:43:00.079Z,100.00
2022-08-25T22:45:26.940Z,100.00
2022-08-25T22:47:55.217Z,100.00
2022-08-25T22:50:21.626Z,100.00
2022-08-25T22:52:48.239Z,100.00
2022-08-25T22:55:14.848Z,100.00
2022-08-25T22:57:42.801Z,100.00
2022-08-25T23:00:10.455Z,100.00
2022-08-25T23:02:37.032Z,100.00
2022-08-25T23:05:03.868Z,100.00
2022-08-25T23:07:32.941Z,100.00
2022-08-25T23:10:00.041Z,100.00
2022-08-25T23:12:26.488Z,100.00
2022-08-25T23:14:52.985Z,100.00
2022-08-25T23:17:19.567Z,100.00
2022-08-25T23:19:46.345Z,100.00
2022-08-25T23:22:16.311Z,100.00
2022-08-25T23:24:46.903Z,100.00
2022-08-25T23:27:14.828Z,100.00
2022-08-25T23:29:44.134Z,100.00
2022-08-25T23:32:13.964Z,100.00
2022-08-25T23:34:42.889Z,100.00
2022-08-25T23:37:13.571Z,100.00
2022-08-25T23:39:45.722Z,100.00
2022-08-25T23:42:12.318Z,100.00
2022-08-25T23:44:38.743Z,100.00
2022-08-25T23:47:07.031Z,100.00
2022-08-25T23:49:33.445Z,100.00
2022-08-25T23:52:00.023Z,100.00
2022-08-25T23:54:30.869Z,100.00
2022-08-25T23:56:57.815Z,100.00
2022-08-25T23:59:25.544Z,100.00
